Time;durP1;ratioP1;P1;durP2;ratioP2;P2;SDS_P1;SDS_P2;PMS_P1;PMS_P2;Temp;Humidity;BMP_temperature;BMP_pressure;BME280_temperature;BME280_humidity;BME280_pressure;Samples;Min_cycle;Max_cycle;Signal;HPM_P1;HPM_P2
2024/04/05 00:00:26;;;;;;;3;1.7;;;;;;;11.81;86.21;98418.333333333;;;;
2024/04/05 00:10:26;;;;;;;3;1.7;;;;;;;11.86;85.2;98425;;;;
2024/04/05 00:21:26;;;;;;;3;1.7;;;;;;;11.95;84.17;98425;;;;
2024/04/05 00:32:26;;;;;;;2.2;1;;;;;;;12.04;83.11;98441.666666667;;;;
2024/04/05 00:43:26;;;;;;;2.2;1;;;;;;;12.15;81.93;98463.333333333;;;;
2024/04/05 00:53:26;;;;;;;2.2;1;;;;;;;12.12;81.99;98475;;;;
2024/04/05 01:04:26;;;;;;;4.2;1.6;;;;;;;12.16;81.35;98486.666666667;;;;
2024/04/05 01:14:26;;;;;;;4.2;1.6;;;;;;;12.23;81.06;98495;;;;
2024/04/05 01:25:26;;;;;;;1.8;0.8;;;;;;;12;79.67;98503.333333333;;;;
2024/04/05 01:35:26;;;;;;;1.8;0.8;;;;;;;11.89;78.77;98511.666666667;;;;
2024/04/05 01:45:26;;;;;;;1.8;0.8;;;;;;;11.76;77.42;98525;;;;
2024/04/05 01:56:26;;;;;;;1.8;0.9;;;;;;;11.59;76.75;98533.333333333;;;;
2024/04/05 02:06:26;;;;;;;1.8;0.9;;;;;;;11.39;76.69;98535;;;;
2024/04/05 02:17:26;;;;;;;1.8;0.9;;;;;;;11.38;76.95;98550;;;;
2024/04/05 02:28:26;;;;;;;2.7;1.1;;;;;;;11.48;76.08;98551.666666667;;;;
2024/04/05 02:38:26;;;;;;;2.7;1.1;;;;;;;11.4;75.54;98558.333333333;;;;
2024/04/05 02:49:26;;;;;;;2.7;1.1;;;;;;;11.33;75.54;98581.666666667;;;;
2024/04/05 03:00:26;;;;;;;2.5;0.9;;;;;;;11.47;75.44;98590;;;;
2024/04/05 03:11:26;;;;;;;2.5;0.9;;;;;;;11.64;74.69;98595;;;;
2024/04/05 03:22:26;;;;;;;2.5;0.9;;;;;;;11.76;74.05;98620;;;;
2024/04/05 03:32:26;;;;;;;3.3;1.9;;;;;;;11.8;73.81;98631.666666667;;;;
2024/04/05 03:42:26;;;;;;;3.3;1.9;;;;;;;11.64;74.06;98643.333333333;;;;
2024/04/05 03:53:26;;;;;;;3.3;1.9;;;;;;;11.64;73.62;98660;;;;
2024/04/05 04:03:26;;;;;;;2.2;0.7;;;;;;;11.62;73.89;98670;;;;
2024/04/05 04:14:26;;;;;;;2.2;0.7;;;;;;;11.58;74.17;98676.666666667;;;;
2024/04/05 04:24:26;;;;;;;2.2;0.7;;;;;;;11.37;74.26;98675;;;;
2024/04/05 04:35:26;;;;;;;4.1;1.6;;;;;;;11;75.22;98685;;;;
2024/04/05 04:45:26;;;;;;;4.1;1.6;;;;;;;10.81;75.73;98693.333333333;;;;
2024/04/05 04:56:30;;;;;;;2.2;0.8;;;;;;;10.71;76.21;98706.666666667;;;;
2024/04/05 05:06:26;;;;;;;2.2;0.8;;;;;;;10.79;76.24;98713.333333333;;;;
2024/04/05 05:16:26;;;;;;;2.2;0.8;;;;;;;10.93;75.94;98726.666666667;;;;
2024/04/05 05:26:26;;;;;;;2.1;0.7;;;;;;;11.19;75.16;98736.666666667;;;;
2024/04/05 05:37:26;;;;;;;2.1;0.7;;;;;;;11.49;74.48;98745;;;;
2024/04/05 05:47:26;;;;;;;2.1;0.7;;;;;;;11.76;73.3;98756.666666667;;;;
2024/04/05 05:58:26;;;;;;;1.9;0.8;;;;;;;12.17;72.74;98771.666666667;;;;
2024/04/05 06:09:26;;;;;;;1.9;0.8;;;;;;;13.15;70.71;98775;;;;
2024/04/05 06:20:26;;;;;;;;;;;;;;;;;98800;;;;
2024/04/05 06:31:26;;;;;;;;;;;;;;;;;98800;;;;
2024/04/05 06:42:27;;;;;;;;;;;;;;;;;98810;;;;
2024/04/05 06:52:26;;;;;;;;;;;;;;;;;98816.666666667;;;;
2024/04/05 07:03:26;;;;;;;;;;;;;;;;;98826.666666667;;;;
2024/04/05 07:13:26;;;;;;;;;;;;;;;;;98836.666666667;;;;
2024/04/05 07:23:26;;;;;;;;;;;;;;;;;98833.333333333;;;;
2024/04/05 07:33:26;;;;;;;;;;;;;;;;;98836.666666667;;;;
2024/04/05 07:44:26;;;;;;;;;;;;;;;;;98836.666666667;;;;
2024/04/05 07:54:26;;;;;;;;;;;;;;;;;98843.333333333;;;;
2024/04/05 08:05:26;;;;;;;9.6;2.2;;;;;;;15.22;62.12;98846;;;;
2024/04/05 08:15:26;;;;;;;9.6;2.2;;;;;;;15.28;62.43;98848;;;;
2024/04/05 08:26:26;;;;;;;9.6;2.2;;;;;;;15.41;62.68;98842;;;;
2024/04/05 08:36:27;;;;;;;7;1.7;;;;;;;15.93;61.12;98850;;;;
2024/04/05 08:47:26;;;;;;;7;1.7;;;;;;;16.38;59.3;98842;;;;
2024/04/05 08:58:26;;;;;;;7;1.7;;;;;;;16.5;58.92;98856;;;;
2024/04/05 09:08:27;;;;;;;8.3;2.6;;;;;;;16.54;57.49;98852;;;;
2024/04/05 09:19:26;;;;;;;8.3;2.6;;;;;;;17.41;56.69;98858;;;;
2024/04/05 09:30:26;;;;;;;8.3;2.6;;;;;;;17.59;55.16;98858;;;;
2024/04/05 09:41:26;;;;;;;2.7;1.1;;;;;;;17.23;54.44;98852;;;;
2024/04/05 09:51:26;;;;;;;2.7;1.1;;;;;;;17.59;53.41;98860;;;;
2024/04/05 10:01:26;;;;;;;2.7;1.1;;;;;;;18.31;54.29;98860;;;;
2024/04/05 10:12:26;;;;;;;8.5;4.7;;;;;;;18.08;52.62;98854;;;;
2024/04/05 10:22:26;;;;;;;8.5;4.7;;;;;;;18.39;53.21;98846;;;;
2024/04/05 10:33:26;;;;;;;8.5;4.7;;;;;;;17.99;52.9;98844;;;;
2024/04/05 10:43:26;;;;;;;3.4;1.6;;;;;;;18.08;53.04;98840;;;;
2024/04/05 10:54:26;;;;;;;3.4;1.6;;;;;;;18.56;52.26;98846.666666667;;;;
2024/04/05 11:05:26;;;;;;;3.2;1.3;;;;;;;18.28;52.64;98860;;;;
2024/04/05 11:16:27;;;;;;;3.2;1.3;;;;;;;18.49;50.28;98860;;;;
2024/04/05 11:26:30;;;;;;;3.2;1.3;;;;;;;19.12;50.72;98855;;;;
2024/04/05 11:37:26;;;;;;;4.5;1.4;;;;;;;18.59;50.03;98860;;;;
2024/04/05 11:47:27;;;;;;;4.5;1.4;;;;;;;18.76;51.57;98855;;;;
2024/04/05 11:57:26;;;;;;;4.5;1.4;;;;;;;18.51;51.83;98851.666666667;;;;
2024/04/05 12:08:26;;;;;;;3.2;1.3;;;;;;;18.8;52.17;98850;;;;
2024/04/05 12:19:26;;;;;;;3.2;1.3;;;;;;;18.74;49.33;98853.333333333;;;;
2024/04/05 12:30:26;;;;;;;3.2;1.3;;;;;;;18.64;49.21;98851.666666667;;;;
2024/04/05 12:41:26;;;;;;;4.8;1.4;;;;;;;18.69;48.78;98853.333333333;;;;
2024/04/05 12:52:26;;;;;;;4.8;1.4;;;;;;;18.62;49.97;98845;;;;
2024/04/05 13:03:26;;;;;;;4.8;1.4;;;;;;;17.99;49.82;98853.333333333;;;;
2024/04/05 13:13:26;;;;;;;3;1.4;;;;;;;18.33;50.23;98843.333333333;;;;
2024/04/05 13:24:28;;;;;;;3;1.4;;;;;;;18.49;45.93;98840;;;;
2024/04/05 13:35:27;;;;;;;6.7;1.3;;;;;;;18.69;47.73;98836.666666667;;;;
2024/04/05 13:46:26;;;;;;;6.7;1.3;;;;;;;18.88;47;98826.666666667;;;;
2024/04/05 13:56:27;;;;;;;6.7;1.3;;;;;;;19.11;47.6;98838.333333333;;;;
2024/04/05 14:06:26;;;;;;;4;1.4;;;;;;;18.95;46.15;98831.666666667;;;;
2024/04/05 14:16:30;;;;;;;4;1.4;;;;;;;19.35;46.81;98816.666666667;;;;
2024/04/05 14:27:27;;;;;;;4;1.4;;;;;;;19.78;46.08;98798.333333333;;;;
2024/04/05 14:37:26;;;;;;;5.3;2;;;;;;;19.49;45.47;98778.333333333;;;;
2024/04/05 14:48:26;;;;;;;5.3;2;;;;;;;19.3;46.75;98768.333333333;;;;
2024/04/05 14:59:26;;;;;;;5.3;2;;;;;;;19.5;47.25;98788.333333333;;;;
2024/04/05 15:09:26;;;;;;;5.8;2.7;;;;;;;20.18;45.3;98776.666666667;;;;
2024/04/05 15:20:26;;;;;;;5.8;2.7;;;;;;;21.98;41.57;98776.666666667;;;;
2024/04/05 15:31:26;;;;;;;5.8;2.7;;;;;;;22.71;40.45;98783.333333333;;;;
2024/04/05 15:41:26;;;;;;;5.8;2.3;;;;;;;23.76;38.44;98785;;;;
2024/04/05 15:52:26;;;;;;;5.8;2.3;;;;;;;24.75;38.05;98778.333333333;;;;
2024/04/05 16:03:26;;;;;;;5.8;2.3;;;;;;;25.66;36.46;98766.666666667;;;;
2024/04/05 16:14:27;;;;;;;6.9;1.8;;;;;;;25.38;35.96;98770;;;;
2024/04/05 16:25:27;;;;;;;6.9;1.8;;;;;;;24.3;37.63;98761.666666667;;;;
2024/04/05 16:36:26;;;;;;;6.2;2.4;;;;;;;22.27;41.04;98761.666666667;;;;
2024/04/05 16:46:28;;;;;;;6.2;2.4;;;;;;;20.77;42.97;98766.666666667;;;;
2024/04/05 16:56:26;;;;;;;6.2;2.4;;;;;;;19.25;46.63;98758.333333333;;;;
2024/04/05 17:07:31;;;;;;;6.9;3;;;;;;;17.92;50.46;98736.666666667;;;;
2024/04/05 17:18:26;;;;;;;6.9;3;;;;;;;16.8;52.87;98745;;;;
2024/04/05 17:28:26;;;;;;;6.9;3;;;;;;;15.9;55.34;98751.666666667;;;;
2024/04/05 17:38:26;;;;;;;7.4;4.6;;;;;;;15.09;58.38;98763.333333333;;;;
2024/04/05 17:49:29;;;;;;;7.4;4.6;;;;;;;14.31;61.2;98766.666666667;;;;
2024/04/05 18:00:26;;;;;;;7.4;4.6;;;;;;;13.7;62.94;98765;;;;
2024/04/05 18:10:26;;;;;;;11.4;7.3;;;;;;;13.2;64.28;98758.333333333;;;;
2024/04/05 18:21:26;;;;;;;11.4;7.3;;;;;;;12.76;66.39;98750;;;;
2024/04/05 18:32:26;;;;;;;11.4;7.3;;;;;;;12.42;67.49;98758.333333333;;;;
2024/04/05 18:43:26;;;;;;;17.6;10.4;;;;;;;12.4;68.53;98756.666666667;;;;
2024/04/05 18:53:26;;;;;;;17.6;10.4;;;;;;;12.41;68.73;98753.333333333;;;;
2024/04/05 19:03:26;;;;;;;17.6;10.4;;;;;;;12.45;68.54;98753.333333333;;;;
2024/04/05 19:13:26;;;;;;;7.7;3.2;;;;;;;12.45;67.98;98745;;;;
2024/04/05 19:23:26;;;;;;;7.7;3.2;;;;;;;12.57;68.64;98723.333333333;;;;
2024/04/05 19:39:44;;;;;;;6.8;3.8;;;;;;;12.98;67.07;98711.666666667;;;;
2024/04/05 19:49:44;;;;;;;6.8;3.8;;;;;;;12.98;67.21;98710;;;;
2024/04/05 19:59:44;;;;;;;6.8;3.8;;;;;;;13.12;66.1;98721.666666667;;;;
2024/04/05 20:10:44;;;;;;;9.6;5.5;;;;;;;13.09;67.19;98728.333333333;;;;
2024/04/05 20:20:44;;;;;;;9.6;5.5;;;;;;;12.91;69.15;98716.666666667;;;;
2024/04/05 20:41:45;;;;;;;10.8;6.7;;;;;;;13.15;68.04;98678.333333333;;;;
2024/04/05 20:51:45;;;;;;;10.8;6.7;;;;;;;13.1;68.54;98685;;;;
2024/04/05 21:01:45;;;;;;;10.8;6.7;;;;;;;13.23;68.52;98673.333333333;;;;
2024/04/05 21:12:45;;;;;;;8.5;5.3;;;;;;;13.45;68.33;98678.333333333;;;;
2024/04/05 21:23:45;;;;;;;8.5;5.3;;;;;;;13.6;68.11;98696.666666667;;;;
2024/04/05 21:34:45;;;;;;;6.3;4;;;;;;;13.69;68.1;98688.333333333;;;;
2024/04/05 21:44:45;;;;;;;6.3;4;;;;;;;13.71;68.72;98665;;;;
2024/04/05 21:55:45;;;;;;;6.3;4;;;;;;;13.84;69.77;98621.666666667;;;;
2024/04/05 22:05:45;;;;;;;7.7;4.2;;;;;;;14.11;68.22;98615;;;;
2024/04/05 22:16:45;;;;;;;7.7;4.2;;;;;;;14.22;67.96;98610;;;;
2024/04/05 22:26:45;;;;;;;7.7;4.2;;;;;;;14.14;68.6;98610;;;;
2024/04/05 22:36:45;;;;;;;5.1;2.7;;;;;;;14.31;68.35;98616.666666667;;;;
2024/04/05 22:47:45;;;;;;;5.1;2.7;;;;;;;14.37;68.27;98625;;;;
2024/04/05 22:57:45;;;;;;;5.1;2.7;;;;;;;14.38;68.35;98625;;;;
2024/04/05 23:08:45;;;;;;;9;3.3;;;;;;;14.46;69.17;98603.333333333;;;;
2024/04/05 23:19:45;;;;;;;9;3.3;;;;;;;14.49;69.64;98576.666666667;;;;
2024/04/05 23:30:45;;;;;;;9;3.3;;;;;;;14.74;68.77;98566.666666667;;;;
2024/04/05 23:40:45;;;;;;;5.1;2.6;;;;;;;14.91;68.71;98545;;;;
2024/04/05 23:50:45;;;;;;;5.1;2.6;;;;;;;15.05;68.38;98533.333333333;;;;
